sensor_id;sensor_type;location;lat;lon;timestamp;temperature;humidity
28336;DHT22;15592;53.656;7.276;2023-02-13T00:00:27;6.40;99.90
28336;DHT22;15592;53.656;7.276;2023-02-13T00:02:53;6.40;99.90
28336;DHT22;15592;53.656;7.276;2023-02-13T00:05:18;6.40;99.90
28336;DHT22;15592;53.656;7.276;2023-02-13T00:07:44;6.40;99.90
28336;DHT22;15592;53.656;7.276;2023-02-13T00:10:10;6.40;99.90
28336;DHT22;15592;53.656;7.276;2023-02-13T00:12:36;6.40;99.90
28336;DHT22;15592;53.656;7.276;2023-02-13T00:15:02;6.40;99.90
28336;DHT22;15592;53.656;7.276;2023-02-13T00:17:27;6.40;99.90
28336;DHT22;15592;53.656;7.276;2023-02-13T00:19:53;6.40;99.90
28336;DHT22;15592;53.656;7.276;2023-02-13T00:22:19;6.40;99.90
28336;DHT22;15592;53.656;7.276;2023-02-13T00:24:44;6.40;99.90
28336;DHT22;15592;53.656;7.276;2023-02-13T00:27:10;6.40;99.90
28336;DHT22;15592;53.656;7.276;2023-02-13T00:29:36;6.40;99.90
28336;DHT22;15592;53.656;7.276;2023-02-13T00:32:01;6.40;99.90
28336;DHT22;15592;53.656;7.276;2023-02-13T00:34:27;6.40;99.90
28336;DHT22;15592;53.656;7.276;2023-02-13T00:36:53;6.40;99.90
28336;DHT22;15592;53.656;7.276;2023-02-13T00:39:18;6.30;99.90
28336;DHT22;15592;53.656;7.276;2023-02-13T00:41:44;6.40;99.90
28336;DHT22;15592;53.656;7.276;2023-02-13T00:44:10;6.30;99.90
28336;DHT22;15592;53.656;7.276;2023-02-13T00:46:36;6.30;99.90
28336;DHT22;15592;53.656;7.276;2023-02-13T00:49:03;6.40;99.90
28336;DHT22;15592;53.656;7.276;2023-02-13T00:51:29;6.30;99.90
28336;DHT22;15592;53.656;7.276;2023-02-13T00:53:54;6.30;99.90
28336;DHT22;15592;53.656;7.276;2023-02-13T00:56:21;6.30;99.90
28336;DHT22;15592;53.656;7.276;2023-02-13T00:58:46;6.30;99.90
28336;DHT22;15592;53.656;7.276;2023-02-13T01:01:12;6.30;99.90
28336;DHT22;15592;53.656;7.276;2023-02-13T01:03:38;6.30;99.90
28336;DHT22;15592;53.656;7.276;2023-02-13T01:06:04;6.30;99.90
28336;DHT22;15592;53.656;7.276;2023-02-13T01:08:29;6.30;99.90
28336;DHT22;15592;53.656;7.276;2023-02-13T01:10:55;6.30;99.90
28336;DHT22;15592;53.656;7.276;2023-02-13T01:13:21;6.30;99.90
28336;DHT22;15592;53.656;7.276;2023-02-13T01:15:47;6.30;99.90
28336;DHT22;15592;53.656;7.276;2023-02-13T01:18:18;6.20;99.90
28336;DHT22;15592;53.656;7.276;2023-02-13T01:20:45;6.20;99.90
28336;DHT22;15592;53.656;7.276;2023-02-13T01:23:19;6.30;99.90
28336;DHT22;15592;53.656;7.276;2023-02-13T01:25:45;6.20;99.90
28336;DHT22;15592;53.656;7.276;2023-02-13T01:28:10;6.20;99.90
28336;DHT22;15592;53.656;7.276;2023-02-13T01:30:36;6.20;99.90
28336;DHT22;15592;53.656;7.276;2023-02-13T01:33:01;6.10;99.90
28336;DHT22;15592;53.656;7.276;2023-02-13T01:35:27;6.10;99.90
28336;DHT22;15592;53.656;7.276;2023-02-13T01:37:52;6.10;99.90
28336;DHT22;15592;53.656;7.276;2023-02-13T01:40:18;6.10;99.90
28336;DHT22;15592;53.656;7.276;2023-02-13T01:42:44;6.10;99.90
28336;DHT22;15592;53.656;7.276;2023-02-13T01:45:29;6.10;99.90
28336;DHT22;15592;53.656;7.276;2023-02-13T01:48:15;6.10;99.90
28336;DHT22;15592;53.656;7.276;2023-02-13T01:50:55;6.10;99.90
28336;DHT22;15592;53.656;7.276;2023-02-13T01:53:25;6.00;99.90
28336;DHT22;15592;53.656;7.276;2023-02-13T01:55:54;6.00;99.90
28336;DHT22;15592;53.656;7.276;2023-02-13T01:58:25;6.00;99.90
28336;DHT22;15592;53.656;7.276;2023-02-13T02:00:52;6.00;99.90
28336;DHT22;15592;53.656;7.276;2023-02-13T02:03:26;6.00;99.90
28336;DHT22;15592;53.656;7.276;2023-02-13T02:05:54;5.90;99.90
28336;DHT22;15592;53.656;7.276;2023-02-13T02:08:21;5.90;99.90
28336;DHT22;15592;53.656;7.276;2023-02-13T02:10:47;5.90;99.90
28336;DHT22;15592;53.656;7.276;2023-02-13T02:13:15;6.00;99.90
28336;DHT22;15592;53.656;7.276;2023-02-13T02:15:44;6.00;99.90
28336;DHT22;15592;53.656;7.276;2023-02-13T02:18:15;6.00;99.90
28336;DHT22;15592;53.656;7.276;2023-02-13T02:48:10;6.00;99.90
28336;DHT22;15592;53.656;7.276;2023-02-13T02:51:03;6.00;99.90
28336;DHT22;15592;53.656;7.276;2023-02-13T02:53:45;6.00;99.90
28336;DHT22;15592;53.656;7.276;2023-02-13T02:56:22;6.00;99.90
28336;DHT22;15592;53.656;7.276;2023-02-13T02:59:02;6.10;99.90
28336;DHT22;15592;53.656;7.276;2023-02-13T03:01:48;6.10;99.90
28336;DHT22;15592;53.656;7.276;2023-02-13T03:04:42;6.10;99.90
28336;DHT22;15592;53.656;7.276;2023-02-13T03:07:28;6.10;99.90
28336;DHT22;15592;53.656;7.276;2023-02-13T03:09:59;6.10;99.90
28336;DHT22;15592;53.656;7.276;2023-02-13T03:13:11;6.10;99.90
28336;DHT22;15592;53.656;7.276;2023-02-13T03:15:50;6.10;99.90
28336;DHT22;15592;53.656;7.276;2023-02-13T03:18:38;6.10;99.90
28336;DHT22;15592;53.656;7.276;2023-02-13T03:24:49;6.10;99.90
28336;DHT22;15592;53.656;7.276;2023-02-13T03:30:28;6.10;99.90
28336;DHT22;15592;53.656;7.276;2023-02-13T03:33:39;6.10;99.90
28336;DHT22;15592;53.656;7.276;2023-02-13T03:42:06;6.10;99.90
28336;DHT22;15592;53.656;7.276;2023-02-13T03:44:47;6.20;99.90
28336;DHT22;15592;53.656;7.276;2023-02-13T03:47:35;6.10;99.90
28336;DHT22;15592;53.656;7.276;2023-02-13T03:50:03;6.10;99.90
28336;DHT22;15592;53.656;7.276;2023-02-13T03:52:52;6.10;99.90
28336;DHT22;15592;53.656;7.276;2023-02-13T03:55:23;6.10;99.90
28336;DHT22;15592;53.656;7.276;2023-02-13T03:58:18;6.10;99.90
28336;DHT22;15592;53.656;7.276;2023-02-13T04:01:07;6.10;99.90
28336;DHT22;15592;53.656;7.276;2023-02-13T04:04:03;6.10;99.90
28336;DHT22;15592;53.656;7.276;2023-02-13T04:06:26;6.10;99.90
28336;DHT22;15592;53.656;7.276;2023-02-13T04:08:54;6.10;99.90
28336;DHT22;15592;53.656;7.276;2023-02-13T04:11:34;6.10;99.90
28336;DHT22;15592;53.656;7.276;2023-02-13T04:14:14;6.10;99.90
28336;DHT22;15592;53.656;7.276;2023-02-13T04:16:45;6.10;99.90
28336;DHT22;15592;53.656;7.276;2023-02-13T04:19:11;6.10;99.90
28336;DHT22;15592;53.656;7.276;2023-02-13T04:21:39;6.00;99.90
28336;DHT22;15592;53.656;7.276;2023-02-13T04:24:05;6.10;99.90
28336;DHT22;15592;53.656;7.276;2023-02-13T04:26:39;6.10;99.90
28336;DHT22;15592;53.656;7.276;2023-02-13T04:29:05;6.10;99.90
28336;DHT22;15592;53.656;7.276;2023-02-13T04:31:31;6.00;99.90
28336;DHT22;15592;53.656;7.276;2023-02-13T04:33:57;6.10;99.90
28336;DHT22;15592;53.656;7.276;2023-02-13T04:36:22;6.10;99.90
28336;DHT22;15592;53.656;7.276;2023-02-13T04:38:48;6.10;99.90
28336;DHT22;15592;53.656;7.276;2023-02-13T04:41:14;6.00;99.90
28336;DHT22;15592;53.656;7.276;2023-02-13T04:43:40;6.10;99.90
28336;DHT22;15592;53.656;7.276;2023-02-13T04:46:06;6.10;99.90
28336;DHT22;15592;53.656;7.276;2023-02-13T04:48:31;6.10;99.90
28336;DHT22;15592;53.656;7.276;2023-02-13T04:50:57;6.00;99.90
28336;DHT22;15592;53.656;7.276;2023-02-13T04:53:22;6.10;99.90
28336;DHT22;15592;53.656;7.276;2023-02-13T04:55:48;6.00;99.90
28336;DHT22;15592;53.656;7.276;2023-02-13T04:58:14;6.10;99.90
28336;DHT22;15592;53.656;7.276;2023-02-13T05:00:39;6.00;99.90
28336;DHT22;15592;53.656;7.276;2023-02-13T05:03:11;6.10;99.90
28336;DHT22;15592;53.656;7.276;2023-02-13T05:05:37;6.00;99.90
28336;DHT22;15592;53.656;7.276;2023-02-13T05:08:03;6.00;99.90
28336;DHT22;15592;53.656;7.276;2023-02-13T05:10:29;6.10;99.90
28336;DHT22;15592;53.656;7.276;2023-02-13T05:12:55;6.10;99.90
28336;DHT22;15592;53.656;7.276;2023-02-13T05:15:21;6.10;99.90
28336;DHT22;15592;53.656;7.276;2023-02-13T05:17:48;6.10;99.90
28336;DHT22;15592;53.656;7.276;2023-02-13T05:20:14;6.10;99.90
28336;DHT22;15592;53.656;7.276;2023-02-13T05:22:47;6.10;99.90
28336;DHT22;15592;53.656;7.276;2023-02-13T05:25:32;6.10;99.90
28336;DHT22;15592;53.656;7.276;2023-02-13T05:27:58;6.10;99.90
28336;DHT22;15592;53.656;7.276;2023-02-13T05:30:24;6.10;99.90
28336;DHT22;15592;53.656;7.276;2023-02-13T05:32:49;6.10;99.90
28336;DHT22;15592;53.656;7.276;2023-02-13T05:35:17;6.10;99.90
28336;DHT22;15592;53.656;7.276;2023-02-13T05:37:43;6.10;99.90
28336;DHT22;15592;53.656;7.276;2023-02-13T05:40:10;6.10;99.90
28336;DHT22;15592;53.656;7.276;2023-02-13T05:42:36;6.10;99.90
28336;DHT22;15592;53.656;7.276;2023-02-13T05:45:02;6.10;99.90
28336;DHT22;15592;53.656;7.276;2023-02-13T05:47:27;6.10;99.90
28336;DHT22;15592;53.656;7.276;2023-02-13T05:49:53;6.10;99.90
28336;DHT22;15592;53.656;7.276;2023-02-13T05:52:18;6.10;99.90
28336;DHT22;15592;53.656;7.276;2023-02-13T05:54:44;6.10;99.90
28336;DHT22;15592;53.656;7.276;2023-02-13T05:57:10;6.10;99.90
28336;DHT22;15592;53.656;7.276;2023-02-13T05:59:35;6.10;99.90
28336;DHT22;15592;53.656;7.276;2023-02-13T06:02:01;6.10;99.90
28336;DHT22;15592;53.656;7.276;2023-02-13T06:04:26;6.10;99.90
28336;DHT22;15592;53.656;7.276;2023-02-13T06:06:52;6.10;99.90
28336;DHT22;15592;53.656;7.276;2023-02-13T06:09:17;6.10;99.90
28336;DHT22;15592;53.656;7.276;2023-02-13T06:11:43;6.10;99.90
28336;DHT22;15592;53.656;7.276;2023-02-13T06:14:10;6.10;99.90
28336;DHT22;15592;53.656;7.276;2023-02-13T06:16:36;6.10;99.90
28336;DHT22;15592;53.656;7.276;2023-02-13T06:19:02;6.10;99.90
28336;DHT22;15592;53.656;7.276;2023-02-13T06:21:27;6.10;99.90
28336;DHT22;15592;53.656;7.276;2023-02-13T06:23:53;6.10;99.90
28336;DHT22;15592;53.656;7.276;2023-02-13T06:26:18;6.00;99.90
28336;DHT22;15592;53.656;7.276;2023-02-13T06:28:44;6.00;99.90
28336;DHT22;15592;53.656;7.276;2023-02-13T06:31:10;6.00;99.90
28336;DHT22;15592;53.656;7.276;2023-02-13T06:33:35;6.00;99.90
28336;DHT22;15592;53.656;7.276;2023-02-13T06:36:01;6.00;99.90
28336;DHT22;15592;53.656;7.276;2023-02-13T06:38:26;6.00;99.90
28336;DHT22;15592;53.656;7.276;2023-02-13T06:40:52;6.00;99.90
28336;DHT22;15592;53.656;7.276;2023-02-13T06:43:18;5.90;99.90
28336;DHT22;15592;53.656;7.276;2023-02-13T06:45:43;5.90;99.90
28336;DHT22;15592;53.656;7.276;2023-02-13T06:48:11;5.90;99.90
28336;DHT22;15592;53.656;7.276;2023-02-13T06:50:36;5.90;99.90
28336;DHT22;15592;53.656;7.276;2023-02-13T06:53:02;5.90;99.90
28336;DHT22;15592;53.656;7.276;2023-02-13T06:55:28;5.90;99.90
28336;DHT22;15592;53.656;7.276;2023-02-13T06:57:53;5.90;99.90
28336;DHT22;15592;53.656;7.276;2023-02-13T07:00:19;5.90;99.90
28336;DHT22;15592;53.656;7.276;2023-02-13T07:02:46;5.90;99.90
28336;DHT22;15592;53.656;7.276;2023-02-13T07:05:12;5.90;99.90
28336;DHT22;15592;53.656;7.276;2023-02-13T07:07:40;5.80;99.90
28336;DHT22;15592;53.656;7.276;2023-02-13T07:10:08;5.90;99.90
28336;DHT22;15592;53.656;7.276;2023-02-13T07:12:34;5.90;99.90
28336;DHT22;15592;53.656;7.276;2023-02-13T07:15:01;5.90;99.90
28336;DHT22;15592;53.656;7.276;2023-02-13T07:17:27;5.90;99.90
28336;DHT22;15592;53.656;7.276;2023-02-13T07:19:53;5.90;99.90
28336;DHT22;15592;53.656;7.276;2023-02-13T07:22:18;5.90;99.90
28336;DHT22;15592;53.656;7.276;2023-02-13T07:24:44;5.90;99.90
28336;DHT22;15592;53.656;7.276;2023-02-13T07:27:09;6.00;99.90
28336;DHT22;15592;53.656;7.276;2023-02-13T07:29:35;6.00;99.90
28336;DHT22;15592;53.656;7.276;2023-02-13T07:32:00;6.00;99.90
28336;DHT22;15592;53.656;7.276;2023-02-13T07:34:26;6.00;99.90
28336;DHT22;15592;53.656;7.276;2023-02-13T07:36:52;6.00;99.90
28336;DHT22;15592;53.656;7.276;2023-02-13T07:39:17;6.00;99.90
28336;DHT22;15592;53.656;7.276;2023-02-13T07:41:43;6.00;99.90
28336;DHT22;15592;53.656;7.276;2023-02-13T07:44:09;6.00;99.90
28336;DHT22;15592;53.656;7.276;2023-02-13T07:46:35;5.90;99.90
28336;DHT22;15592;53.656;7.276;2023-02-13T07:49:00;6.00;99.90
28336;DHT22;15592;53.656;7.276;2023-02-13T07:51:26;6.00;99.90
28336;DHT22;15592;53.656;7.276;2023-02-13T07:53:53;6.00;99.90
28336;DHT22;15592;53.656;7.276;2023-02-13T07:56:19;6.00;99.90
28336;DHT22;15592;53.656;7.276;2023-02-13T07:58:45;6.00;99.90
28336;DHT22;15592;53.656;7.276;2023-02-13T08:01:13;6.00;99.90
28336;DHT22;15592;53.656;7.276;2023-02-13T08:03:39;6.00;99.90
28336;DHT22;15592;53.656;7.276;2023-02-13T08:06:06;6.10;99.90
28336;DHT22;15592;53.656;7.276;2023-02-13T08:11:32;6.10;99.90
28336;DHT22;15592;53.656;7.276;2023-02-13T08:14:16;6.10;99.90
28336;DHT22;15592;53.656;7.276;2023-02-13T08:16:42;6.10;99.90
28336;DHT22;15592;53.656;7.276;2023-02-13T08:19:07;6.10;99.90
28336;DHT22;15592;53.656;7.276;2023-02-13T08:21:33;6.10;99.90
28336;DHT22;15592;53.656;7.276;2023-02-13T08:23:59;6.10;99.90
28336;DHT22;15592;53.656;7.276;2023-02-13T08:26:25;6.10;99.90
28336;DHT22;15592;53.656;7.276;2023-02-13T08:28:51;6.10;99.90
28336;DHT22;15592;53.656;7.276;2023-02-13T08:31:16;6.20;99.90
28336;DHT22;15592;53.656;7.276;2023-02-13T08:33:42;6.20;99.90
28336;DHT22;15592;53.656;7.276;2023-02-13T08:36:08;6.20;99.90
28336;DHT22;15592;53.656;7.276;2023-02-13T08:38:34;6.20;99.90
28336;DHT22;15592;53.656;7.276;2023-02-13T08:40:59;6.20;99.90
28336;DHT22;15592;53.656;7.276;2023-02-13T08:43:25;6.30;99.90
28336;DHT22;15592;53.656;7.276;2023-02-13T08:45:50;6.30;99.90
28336;DHT22;15592;53.656;7.276;2023-02-13T08:48:16;6.40;99.90
28336;DHT22;15592;53.656;7.276;2023-02-13T08:50:42;6.40;99.90
28336;DHT22;15592;53.656;7.276;2023-02-13T08:53:07;6.40;99.90
28336;DHT22;15592;53.656;7.276;2023-02-13T08:55:33;6.40;99.90
28336;DHT22;15592;53.656;7.276;2023-02-13T08:58:00;6.40;99.90
28336;DHT22;15592;53.656;7.276;2023-02-13T09:00:26;6.40;99.90
28336;DHT22;15592;53.656;7.276;2023-02-13T09:02:52;6.40;99.90
28336;DHT22;15592;53.656;7.276;2023-02-13T09:05:18;6.40;99.90
28336;DHT22;15592;53.656;7.276;2023-02-13T09:07:43;6.40;99.90
28336;DHT22;15592;53.656;7.276;2023-02-13T09:10:09;6.30;99.90
28336;DHT22;15592;53.656;7.276;2023-02-13T09:12:35;6.30;99.90
28336;DHT22;15592;53.656;7.276;2023-02-13T09:15:00;6.30;99.90
28336;DHT22;15592;53.656;7.276;2023-02-13T09:17:26;6.40;99.90
28336;DHT22;15592;53.656;7.276;2023-02-13T09:19:52;6.40;99.90
28336;DHT22;15592;53.656;7.276;2023-02-13T09:22:17;6.40;99.90
28336;DHT22;15592;53.656;7.276;2023-02-13T09:24:43;6.40;99.90
28336;DHT22;15592;53.656;7.276;2023-02-13T09:27:08;6.50;99.90
28336;DHT22;15592;53.656;7.276;2023-02-13T09:29:35;6.40;99.90
28336;DHT22;15592;53.656;7.276;2023-02-13T09:32:01;6.50;99.90
28336;DHT22;15592;53.656;7.276;2023-02-13T09:34:26;6.50;99.90
28336;DHT22;15592;53.656;7.276;2023-02-13T09:36:53;6.40;99.90
28336;DHT22;15592;53.656;7.276;2023-02-13T09:39:18;6.50;99.90
28336;DHT22;15592;53.656;7.276;2023-02-13T09:41:47;6.50;99.90
28336;DHT22;15592;53.656;7.276;2023-02-13T09:44:26;6.50;99.90
28336;DHT22;15592;53.656;7.276;2023-02-13T09:47:04;6.50;99.90
28336;DHT22;15592;53.656;7.276;2023-02-13T09:49:33;6.60;99.90
28336;DHT22;15592;53.656;7.276;2023-02-13T09:52:00;6.60;99.90
28336;DHT22;15592;53.656;7.276;2023-02-13T09:54:26;6.60;99.90
28336;DHT22;15592;53.656;7.276;2023-02-13T09:57:14;6.60;99.90
28336;DHT22;15592;53.656;7.276;2023-02-13T10:08:11;6.70;99.90
28336;DHT22;15592;53.656;7.276;2023-02-13T10:10:50;6.60;99.90
28336;DHT22;15592;53.656;7.276;2023-02-13T10:16:26;6.70;99.90
28336;DHT22;15592;53.656;7.276;2023-02-13T10:21:52;6.80;99.90
28336;DHT22;15592;53.656;7.276;2023-02-13T10:27:15;6.80;99.90
28336;DHT22;15592;53.656;7.276;2023-02-13T10:35:36;6.90;99.90
28336;DHT22;15592;53.656;7.276;2023-02-13T10:38:22;6.90;99.90
28336;DHT22;15592;53.656;7.276;2023-02-13T10:43:38;7.00;99.90
28336;DHT22;15592;53.656;7.276;2023-02-13T10:46:24;7.00;99.90
28336;DHT22;15592;53.656;7.276;2023-02-13T10:54:27;7.10;99.90
28336;DHT22;15592;53.656;7.276;2023-02-13T11:00:07;7.10;99.90
28336;DHT22;15592;53.656;7.276;2023-02-13T11:02:34;7.20;99.90
28336;DHT22;15592;53.656;7.276;2023-02-13T11:07:40;7.20;99.90
28336;DHT22;15592;53.656;7.276;2023-02-13T11:10:17;7.20;99.90
28336;DHT22;15592;53.656;7.276;2023-02-13T11:12:44;7.20;99.90
28336;DHT22;15592;53.656;7.276;2023-02-13T11:15:28;7.20;99.90
28336;DHT22;15592;53.656;7.276;2023-02-13T11:17:59;7.20;99.90
28336;DHT22;15592;53.656;7.276;2023-02-13T11:20:41;7.30;99.90
28336;DHT22;15592;53.656;7.276;2023-02-13T11:28:21;7.30;99.90
28336;DHT22;15592;53.656;7.276;2023-02-13T11:30:47;7.40;99.90
28336;DHT22;15592;53.656;7.276;2023-02-13T11:35:45;7.40;99.90
28336;DHT22;15592;53.656;7.276;2023-02-13T11:40:44;7.40;99.90
28336;DHT22;15592;53.656;7.276;2023-02-13T11:43:28;7.50;99.90
28336;DHT22;15592;53.656;7.276;2023-02-13T11:46:04;7.50;99.90
28336;DHT22;15592;53.656;7.276;2023-02-13T11:48:31;7.50;99.90
28336;DHT22;15592;53.656;7.276;2023-02-13T11:50:57;7.50;99.90
28336;DHT22;15592;53.656;7.276;2023-02-13T11:53:26;7.50;99.90
28336;DHT22;15592;53.656;7.276;2023-02-13T11:56:12;7.50;99.90
28336;DHT22;15592;53.656;7.276;2023-02-13T11:58:38;7.60;99.90
28336;DHT22;15592;53.656;7.276;2023-02-13T12:04:12;7.50;99.90
28336;DHT22;15592;53.656;7.276;2023-02-13T12:06:41;7.60;99.90
28336;DHT22;15592;53.656;7.276;2023-02-13T12:09:21;7.70;99.90
28336;DHT22;15592;53.656;7.276;2023-02-13T12:11:52;7.70;99.90
28336;DHT22;15592;53.656;7.276;2023-02-13T12:14:28;7.60;99.90
28336;DHT22;15592;53.656;7.276;2023-02-13T12:17:06;7.70;99.90
28336;DHT22;15592;53.656;7.276;2023-02-13T12:19:35;7.70;99.90
28336;DHT22;15592;53.656;7.276;2023-02-13T12:27:40;7.70;99.90
28336;DHT22;15592;53.656;7.276;2023-02-13T12:38:03;7.80;99.90
28336;DHT22;15592;53.656;7.276;2023-02-13T12:41:06;7.80;99.90
28336;DHT22;15592;53.656;7.276;2023-02-13T12:46:29;7.90;99.90
28336;DHT22;15592;53.656;7.276;2023-02-13T12:55:12;7.80;99.90
28336;DHT22;15592;53.656;7.276;2023-02-13T12:57:47;7.90;99.90
28336;DHT22;15592;53.656;7.276;2023-02-13T13:09:20;7.90;99.90
28336;DHT22;15592;53.656;7.276;2023-02-13T13:12:00;7.90;99.90
28336;DHT22;15592;53.656;7.276;2023-02-13T13:23:07;7.90;99.90
28336;DHT22;15592;53.656;7.276;2023-02-13T13:28:31;7.90;99.90
28336;DHT22;15592;53.656;7.276;2023-02-13T13:30:58;7.90;99.90
28336;DHT22;15592;53.656;7.276;2023-02-13T13:33:25;7.90;99.90
28336;DHT22;15592;53.656;7.276;2023-02-13T13:49:59;7.80;99.90
28336;DHT22;15592;53.656;7.276;2023-02-13T13:54:54;7.80;99.90
28336;DHT22;15592;53.656;7.276;2023-02-13T13:57:24;7.90;99.90
28336;DHT22;15592;53.656;7.276;2023-02-13T14:02:40;7.90;99.90
28336;DHT22;15592;53.656;7.276;2023-02-13T14:05:23;7.80;99.90
28336;DHT22;15592;53.656;7.276;2023-02-13T14:07:57;7.80;99.90
28336;DHT22;15592;53.656;7.276;2023-02-13T14:18:21;7.80;99.90
28336;DHT22;15592;53.656;7.276;2023-02-13T14:31:34;7.80;99.90
28336;DHT22;15592;53.656;7.276;2023-02-13T14:36:48;7.80;99.90
28336;DHT22;15592;53.656;7.276;2023-02-13T14:39:31;7.80;99.90
28336;DHT22;15592;53.656;7.276;2023-02-13T14:42:01;7.80;99.90
28336;DHT22;15592;53.656;7.276;2023-02-13T14:44:31;7.80;99.90
28336;DHT22;15592;53.656;7.276;2023-02-13T14:47:02;7.80;99.90
28336;DHT22;15592;53.656;7.276;2023-02-13T14:49:34;7.80;99.90
28336;DHT22;15592;53.656;7.276;2023-02-13T14:52:04;7.80;99.90
28336;DHT22;15592;53.656;7.276;2023-02-13T14:54:32;7.80;99.90
28336;DHT22;15592;53.656;7.276;2023-02-13T14:57:19;7.80;99.90
28336;DHT22;15592;53.656;7.276;2023-02-13T14:59:51;7.80;99.90
28336;DHT22;15592;53.656;7.276;2023-02-13T15:02:32;7.70;99.90
28336;DHT22;15592;53.656;7.276;2023-02-13T15:05:06;7.70;99.90
28336;DHT22;15592;53.656;7.276;2023-02-13T15:07:37;7.70;99.90
28336;DHT22;15592;53.656;7.276;2023-02-13T15:10:32;7.70;99.90
28336;DHT22;15592;53.656;7.276;2023-02-13T15:13:00;7.70;99.90
28336;DHT22;15592;53.656;7.276;2023-02-13T15:15:33;7.80;99.90
28336;DHT22;15592;53.656;7.276;2023-02-13T15:18:07;7.80;99.90
28336;DHT22;15592;53.656;7.276;2023-02-13T15:20:35;7.80;99.90
28336;DHT22;15592;53.656;7.276;2023-02-13T15:23:02;7.80;99.90
28336;DHT22;15592;53.656;7.276;2023-02-13T15:25:37;7.80;99.90
28336;DHT22;15592;53.656;7.276;2023-02-13T15:28:05;7.80;99.90
28336;DHT22;15592;53.656;7.276;2023-02-13T15:30:36;7.80;99.90
28336;DHT22;15592;53.656;7.276;2023-02-13T15:33:18;7.80;99.90
28336;DHT22;15592;53.656;7.276;2023-02-13T15:35:44;7.90;99.90
28336;DHT22;15592;53.656;7.276;2023-02-13T15:40:50;7.90;99.90
28336;DHT22;15592;53.656;7.276;2023-02-13T15:43:29;7.90;99.90
28336;DHT22;15592;53.656;7.276;2023-02-13T15:45:59;7.80;99.90
28336;DHT22;15592;53.656;7.276;2023-02-13T15:48:25;7.80;99.90
28336;DHT22;15592;53.656;7.276;2023-02-13T15:50:52;7.80;99.90
28336;DHT22;15592;53.656;7.276;2023-02-13T15:53:18;7.80;99.90
28336;DHT22;15592;53.656;7.276;2023-02-13T15:55:59;7.80;99.90
28336;DHT22;15592;53.656;7.276;2023-02-13T15:58:28;7.80;99.90
28336;DHT22;15592;53.656;7.276;2023-02-13T16:00:55;7.80;99.90
28336;DHT22;15592;53.656;7.276;2023-02-13T16:03:24;7.70;99.90
28336;DHT22;15592;53.656;7.276;2023-02-13T16:05:50;7.70;99.90
28336;DHT22;15592;53.656;7.276;2023-02-13T16:08:37;7.70;99.90
28336;DHT22;15592;53.656;7.276;2023-02-13T16:19:30;7.50;99.90
28336;DHT22;15592;53.656;7.276;2023-02-13T16:22:41;7.40;99.90
28336;DHT22;15592;53.656;7.276;2023-02-13T16:24:49;7.40;99.90
28336;DHT22;15592;53.656;7.276;2023-02-13T16:27:16;7.40;99.90
28336;DHT22;15592;53.656;7.276;2023-02-13T16:29:55;7.40;99.90
28336;DHT22;15592;53.656;7.276;2023-02-13T16:32:31;7.30;99.90
28336;DHT22;15592;53.656;7.276;2023-02-13T16:35:28;7.30;99.90
28336;DHT22;15592;53.656;7.276;2023-02-13T16:37:57;7.30;99.90
28336;DHT22;15592;53.656;7.276;2023-02-13T16:40:43;7.20;99.90
28336;DHT22;15592;53.656;7.276;2023-02-13T16:43:38;7.20;99.90
28336;DHT22;15592;53.656;7.276;2023-02-13T16:48:41;7.10;99.90
28336;DHT22;15592;53.656;7.276;2023-02-13T16:51:07;7.10;99.90
28336;DHT22;15592;53.656;7.276;2023-02-13T16:53:33;7.10;99.90
28336;DHT22;15592;53.656;7.276;2023-02-13T16:56:02;7.10;99.90
28336;DHT22;15592;53.656;7.276;2023-02-13T16:58:29;7.10;99.90
28336;DHT22;15592;53.656;7.276;2023-02-13T17:00:55;7.10;99.90
28336;DHT22;15592;53.656;7.276;2023-02-13T17:03:20;7.10;99.90
28336;DHT22;15592;53.656;7.276;2023-02-13T17:05:46;7.10;99.90
28336;DHT22;15592;53.656;7.276;2023-02-13T17:08:12;7.00;99.90
28336;DHT22;15592;53.656;7.276;2023-02-13T17:10:38;7.00;99.90
28336;DHT22;15592;53.656;7.276;2023-02-13T17:15:40;7.00;99.90
28336;DHT22;15592;53.656;7.276;2023-02-13T17:18:06;6.90;99.90
28336;DHT22;15592;53.656;7.276;2023-02-13T17:20:33;6.90;99.90
28336;DHT22;15592;53.656;7.276;2023-02-13T17:23:01;6.90;99.90
28336;DHT22;15592;53.656;7.276;2023-02-13T17:25:35;6.90;99.90
28336;DHT22;15592;53.656;7.276;2023-02-13T17:28:23;6.90;99.90
28336;DHT22;15592;53.656;7.276;2023-02-13T17:30:50;6.80;99.90
28336;DHT22;15592;53.656;7.276;2023-02-13T17:33:28;6.90;99.90
28336;DHT22;15592;53.656;7.276;2023-02-13T17:35:54;6.90;99.90
28336;DHT22;15592;53.656;7.276;2023-02-13T17:38:20;6.90;99.90
28336;DHT22;15592;53.656;7.276;2023-02-13T17:40:46;6.90;99.90
28336;DHT22;15592;53.656;7.276;2023-02-13T17:43:14;6.90;99.90
28336;DHT22;15592;53.656;7.276;2023-02-13T17:45:40;6.90;99.90
28336;DHT22;15592;53.656;7.276;2023-02-13T17:48:06;6.80;99.90
28336;DHT22;15592;53.656;7.276;2023-02-13T17:50:33;6.90;99.90
28336;DHT22;15592;53.656;7.276;2023-02-13T17:53:04;6.80;99.90
28336;DHT22;15592;53.656;7.276;2023-02-13T17:55:31;6.90;99.90
28336;DHT22;15592;53.656;7.276;2023-02-13T17:57:58;6.90;99.90
28336;DHT22;15592;53.656;7.276;2023-02-13T18:00:28;6.90;99.90
28336;DHT22;15592;53.656;7.276;2023-02-13T18:02:55;6.90;99.90
28336;DHT22;15592;53.656;7.276;2023-02-13T18:05:21;6.90;99.90
28336;DHT22;15592;53.656;7.276;2023-02-13T18:07:47;6.90;99.90
28336;DHT22;15592;53.656;7.276;2023-02-13T18:10:19;6.90;99.90
28336;DHT22;15592;53.656;7.276;2023-02-13T18:12:46;6.90;99.90
28336;DHT22;15592;53.656;7.276;2023-02-13T18:15:12;6.90;99.90
28336;DHT22;15592;53.656;7.276;2023-02-13T18:17:38;6.90;99.90
28336;DHT22;15592;53.656;7.276;2023-02-13T18:20:10;6.90;99.90
28336;DHT22;15592;53.656;7.276;2023-02-13T18:22:36;6.80;99.90
28336;DHT22;15592;53.656;7.276;2023-02-13T18:25:02;6.80;99.90
28336;DHT22;15592;53.656;7.276;2023-02-13T18:27:27;6.80;99.90
28336;DHT22;15592;53.656;7.276;2023-02-13T18:29:54;6.80;99.90
28336;DHT22;15592;53.656;7.276;2023-02-13T18:32:20;6.80;99.90
28336;DHT22;15592;53.656;7.276;2023-02-13T18:34:46;6.80;99.90
28336;DHT22;15592;53.656;7.276;2023-02-13T18:37:12;6.80;99.90
28336;DHT22;15592;53.656;7.276;2023-02-13T18:39:38;6.70;99.90
28336;DHT22;15592;53.656;7.276;2023-02-13T18:42:04;6.70;99.90
28336;DHT22;15592;53.656;7.276;2023-02-13T18:44:30;6.70;99.90
28336;DHT22;15592;53.656;7.276;2023-02-13T18:46:56;6.70;99.90
28336;DHT22;15592;53.656;7.276;2023-02-13T18:49:22;6.70;99.90
28336;DHT22;15592;53.656;7.276;2023-02-13T18:51:48;6.70;99.90
28336;DHT22;15592;53.656;7.276;2023-02-13T18:54:13;6.70;99.90
28336;DHT22;15592;53.656;7.276;2023-02-13T18:56:39;6.70;99.90
28336;DHT22;15592;53.656;7.276;2023-02-13T18:59:05;6.70;99.90
28336;DHT22;15592;53.656;7.276;2023-02-13T19:01:30;6.70;99.90
28336;DHT22;15592;53.656;7.276;2023-02-13T19:03:56;6.70;99.90
28336;DHT22;15592;53.656;7.276;2023-02-13T19:06:24;6.70;99.90
28336;DHT22;15592;53.656;7.276;2023-02-13T19:08:50;6.60;99.90
28336;DHT22;15592;53.656;7.276;2023-02-13T19:11:20;6.70;99.90
28336;DHT22;15592;53.656;7.276;2023-02-13T19:13:48;6.70;99.90